Station: Lajamanu

  Atmospheric Gas Attenuation - ITU Rec 676-11   --------------- db/100km ---------------
Date Time Temp RH % AH g/m3 Dew Point Wind Direction Speed kph Gust kph Barometer mB Rainfall Since 9am 24GHz 47GHz 76GHz 122GHz 134GHz 241GHz
11 21:30 24.4 41 9.12 10.3 11 15 1012.1 0 20.2 23.7 36.7 96.3 92.0 317.3
11 21:20 24.2 43 9.46 10.8 9 11 1012.1 0 20.9 24.3 38.0 99.8 96.2 332.0
11 21:10 24.2 41 9.02 10.1 9 9 1012 0 20.0 23.6 36.4 95.6 91.0 313.9
11 21:00 24.4 40 8.9 9.9 7 9 1011.8 0 19.7 23.4 35.9 94.2 89.4 308.3
11 20:50 24.6 40 9 10.1 7 7 1011.7 0 19.9 23.5 36.2 94.9 90.3 311.5
11 20:40 24.8 40 9.1 10.3 7 9 1011.6 0 20.1 23.6 36.4 95.6 91.2 314.8
11 20:30 25.2 39 9.08 10.3 6 9 1011.4 0 20.1 23.5 36.2 94.9 90.5 312.4
11 20:20 25.3 39 9.13 10.4 7 7 1011.2 0 20.2 23.5 36.3 95.2 91.0 313.9
11 20:10 25.5 38 9 10.1 7 7 1011 0 19.9 23.2 35.7 93.8 89.3 307.9
11 20:00 25.8 34 8.19 8.8 6 7 1010.8 0 18.2 22.0 32.8 86.0 79.8 274.9
11 19:50 26.2 33 8.12 8.7 4 6 1010.8 0 18.0 21.9 32.4 85.0 78.7 270.9
11 19:40 26.3 33 8.17 8.8 6 7 1010.7 0 18.1 21.9 32.6 85.3 79.1 272.4
11 19:30 26.9 31 7.93 8.4 7 9 1010.5 0 17.6 21.4 31.5 82.6 75.9 261.3
11 19:20 27.5 30 7.94 8.4 7 7 1010.5 0 17.6 21.3 31.3 82.1 75.5 259.8
11 19:10 27.9 28 7.57 7.7 7 9 1010.4 0 16.8 20.7 30.0 78.5 71.2 244.7
11 19:00 28.4 27 7.51 7.6 7 9 1010.2 0 16.7 20.5 29.6 77.5 70.1 241.0
11 18:50 29 26 7.47 7.6 9 11 1010.2 0 16.6 20.4 29.3 76.6 69.2 237.9
11 18:40 29.8 25 7.5 7.7 7 9 1010.1 0 16.6 20.2 29.1 76.1 68.8 236.7
11 18:30 30.5 24 7.48 7.7 13 17 1010 0 16.5 20.0 28.8 75.3 68.0 234.0
11 18:20 31.1 23 7.4 7.5 13 13 1010 0 16.3 19.8 28.3 74.2 66.7 229.5
11 18:10 31.8 22 7.35 7.5 15 19 1010 0 16.2 19.6 28.0 73.1 65.7 225.8
11 18:00 32.1 21 7.13 7 17 28 1009.9 0 15.7 19.3 27.2 71.1 63.3 217.4
11 17:50 32.4 20 6.9 6.6 19 24 1010.1 0 15.3 18.9 26.4 69.1 60.8 208.8
11 17:40 32.7 21 7.36 7.5 19 22 1010.2 0 16.2 19.4 27.7 72.5 65.1 223.8
11 17:30 32.8 20 7.05 6.9 17 24 1010 0 15.5 19.0 26.8 69.9 62.0 212.9
11 17:20 32.9 20 7.08 7 19 20 1010.1 0 15.6 19.1 26.8 70.1 62.2 213.7
11 17:10 33.3 20 7.24 7.3 19 22 1010.1 0 15.9 19.2 27.2 71.0 63.5 218.1
11 17:00 33.2 20 7.2 7.2 19 26 1010.1 0 15.8 19.2 27.1 70.8 63.1 217.0
11 16:50 33.7 20 7.39 7.6 19 22 1010.2 0 16.2 19.3 27.5 71.9 64.6 222.2
11 16:40 33.7 20 7.39 7.6 15 19 1010.1 0 16.2 19.3 27.5 71.9 64.6 222.2
11 16:30 33.7 20 7.39 7.6 17 24 1010.1 0 16.2 19.3 27.5 71.9 64.6 222.2
11 16:20 33.7 21 7.76 8.3 17 20 1010.2 0 17.0 19.7 28.6 74.8 68.2 234.9
11 16:10 33.5 21 7.68 8.2 13 20 1010.2 0 16.8 19.7 28.4 74.3 67.6 232.7
11 16:00 33.5 21 7.68 8.2 17 32 1010.1 0 16.8 19.7 28.4 74.3 67.6 232.7
11 15:50 33.8 21 7.8 8.4 17 17 1010.2 0 17.0 19.8 28.7 75.0 68.5 236.0
11 15:40 33.3 20 7.24 7.3 22 24 1010.2 0 15.9 19.2 27.2 71.0 63.5 218.2
11 15:30 33.3 20 7.24 7.3 17 28 1010.3 0 15.9 19.2 27.2 71.0 63.5 218.2
11 15:20 33.2 21 7.56 7.9 22 24 1010.5 0 16.6 19.6 28.1 73.7 66.7 229.5
11 15:10 33.3 20 7.24 7.3 15 20 1010.6 0 15.9 19.2 27.2 71.0 63.5 218.2
11 15:00 33.6 20 7.35 7.6 20 30 1010.6 0 16.1 19.3 27.4 71.7 64.3 221.2
11 14:50 33.6 21 7.72 8.3 20 24 1010.9 0 16.9 19.7 28.5 74.6 67.9 234.0
11 14:40 33.2 21 7.56 7.9 17 22 1011 0 16.6 19.6 28.2 73.7 66.7 229.6
11 14:30 33.4 21 7.64 8.1 19 26 1011.1 0 16.7 19.7 28.3 74.2 67.3 231.8
11 14:20 33.1 21 7.52 7.9 17 20 1011.1 0 16.5 19.6 28.1 73.5 66.4 228.5
11 14:10 33 22 7.83 8.5 17 20 1011.2 0 17.1 20.0 29.0 76.1 69.5 239.5
11 14:00 33.3 22 7.96 8.7 20 35 1011.3 0 17.4 20.1 29.3 76.8 70.6 243.2
11 13:50 32.9 22 7.79 8.4 20 28 1011.5 0 17.1 20.0 29.0 75.8 69.3 238.5
11 13:40 32.3 22 7.55 7.9 17 19 1011.5 0 16.6 19.8 28.5 74.4 67.4 231.8
11 13:30 32.3 23 7.89 8.5 20 30 1011.5 0 17.3 20.2 29.5 77.2 70.8 243.7
11 13:20 32.3 21 7.21 7.2 22 26 1011.6 0 15.9 19.4 27.4 71.7 64.0 220.0
11 13:10 32.5 24 8.32 9.3 24 30 1011.8 0 18.2 20.7 30.7 80.6 75.0 258.5
11 13:00 31.8 23 7.68 8.1 24 35 1012 0 16.9 20.1 29.0 76.0 69.1 237.8
11 12:50 31.8 22 7.35 7.5 24 30 1012.1 0 16.2 19.7 28.0 73.3 65.8 226.2
11 12:40 31.4 23 7.52 7.8 30 33 1012.3 0 16.6 20.0 28.7 75.1 67.8 233.3
11 12:30 31.7 24 7.98 8.7 22 35 1012.5 0 17.5 20.5 30.0 78.6 72.2 248.9
11 12:20 31.3 24 7.81 8.3 20 26 1012.6 0 17.2 20.4 29.6 77.5 70.9 244.0
11 12:10 30.9 24 7.64 8 24 30 1012.7 0 16.8 20.2 29.2 76.5 69.5 239.1
11 12:00 30.5 24 7.48 7.7 30 43 1012.8 0 16.5 20.1 28.9 75.6 68.2 234.5
11 11:50 31 25 8 8.7 22 30 1013 0 17.6 20.7 30.3 79.4 73.1 251.8
11 11:40 30 25 7.58 7.8 32 39 1013.1 0 16.7 20.4 29.4 76.9 69.7 239.6
11 11:30 30.4 26 8.06 8.7 26 37 1013.1 0 17.7 20.9 30.7 80.5 74.3 255.8
11 11:20 29.3 25 7.3 7.2 33 39 1013.3 0 16.2 20.2 28.8 75.2 67.4 231.5
11 11:10 29.3 26 7.59 7.8 32 39 1013.4 0 16.8 20.5 29.7 77.6 70.4 242.0
11 11:00 29 26 7.47 7.6 33 44 1013.3 0 16.6 20.5 29.4 76.9 69.4 238.5
11 10:50 29 27 7.76 8.1 30 35 1013.4 0 17.2 20.8 30.3 79.3 72.4 249.1
11 10:40 28.7 27 7.63 7.9 30 37 1013.5 0 16.9 20.7 30.0 78.5 71.3 245.2
11 10:30 28.4 28 7.78 8.1 30 44 1013.4 0 17.2 21.0 30.6 80.1 73.1 251.6
11 10:20 27.7 27 7.22 7 35 44 1013.4 0 16.1 20.4 29.1 76.0 67.9 233.0
11 10:10 27.8 28 7.53 7.6 32 43 1013.4 0 16.7 20.8 30.0 78.5 71.0 244.2
11 10:00 27.6 29 7.72 8 33 46 1013.3 0 17.1 21.1 30.7 80.3 73.2 251.8
11 09:50 27.1 29 7.51 7.5 37 41 1013.4 0 16.7 20.9 30.2 79.0 71.4 245.5
11 09:40 26.6 29 7.3 7.1 26 32 1013.4 0 16.3 20.8 29.7 77.7 69.6 239.1
11 09:30 26.4 29 7.22 6.9 32 46 1013.3 0 16.1 20.7 29.5 77.2 68.9 236.7
11 09:20 26.2 30 7.39 7.3 26 33 1013.5 0 16.5 21.0 30.1 78.8 70.9 243.7
11 09:10 25.6 29 6.9 6.3 35 41 1013.4 0 15.5 20.5 28.8 75.1 66.2 227.0
11 09:00 25.3 31 7.26 7 28 39 1013.2 0 16.3 21.0 30.0 78.5 70.3 241.3
11 08:50 24.6 31 6.98 6.4 24 32 1013.2 0 15.7 20.8 29.4 76.7 67.9 232.7
11 08:40 24.2 31 6.82 6 26 33 1013.3 0 15.4 20.7 29.0 75.7 66.5 227.8
11 08:30 23.6 34 7.23 6.8 20 28 1013.1 0 16.3 21.3 30.5 79.9 71.4 245.2
11 08:20 22.9 35 7.15 6.6 17 22 1013.2 0 16.1 21.4 30.5 79.8 71.2 244.2
11 08:10 22.2 38 7.46 7.2 17 20 1013.1 0 16.8 22.0 31.9 83.3 75.3 258.5
11 08:00 21.4 41 7.69 7.6 15 20 1012.9 0 17.3 22.5 33.0 86.3 78.6 270.2
11 07:50 20.4 44 7.78 7.7 13 13 1013 0 17.6 22.9 33.7 88.2 80.7 277.3
11 07:40 20.1 45 7.82 7.8 9 11 1012.8 0 17.6 23.0 33.9 88.9 81.5 279.9
11 07:30 19.8 46 7.86 7.9 9 13 1012.5 0 17.7 23.1 34.2 89.6 82.2 282.5
11 07:20 19.8 45 7.69 7.5 11 13 1012.3 0 17.4 22.9 33.6 87.9 80.2 275.5
11 07:10 19.6 45 7.6 7.4 11 13 1012.1 0 17.2 22.8 33.3 87.3 79.3 272.4
11 07:00 19.7 45 7.64 7.4 13 15 1012 0 17.3 22.8 33.4 87.5 79.7 273.7
11 06:50 20.1 44 7.65 7.5 13 15 1011.7 0 17.3 22.7 33.3 87.2 79.4 272.7
11 06:40 20.4 43 7.61 7.4 11 13 1011.6 0 17.2 22.6 33.0 86.5 78.6 270.0
11 06:30 20.6 42 7.52 7.2 13 15 1011.4 0 17.0 22.4 32.6 85.4 77.4 265.6
11 06:20 20.8 42 7.6 7.4 13 15 1011.3 0 17.2 22.4 32.8 85.9 78.1 268.2
11 06:10 20.8 43 7.79 7.8 11 11 1011.1 0 17.6 22.7 33.5 87.7 80.3 275.9
11 06:00 20.9 44 8.01 8.2 9 15 1011.1 0 18.0 23.0 34.2 89.7 82.7 284.6
11 05:50 20.8 44 7.97 8.1 9 11 1010.9 0 17.9 23.0 34.1 89.4 82.4 283.2
11 05:40 21.1 43 7.92 8 11 13 1010.8 0 17.8 22.8 33.8 88.6 81.5 280.1
11 04:50 21.6 46 8.72 9.5 17 20 1010.3 0 19.5 23.8 36.4 95.6 90.3 311.2
11 04:40 21.5 51 9.62 10.9 9 11 1010.2 0 21.4 25.2 39.8 104.6 101.3 349.7
11 04:30 20.8 56 10.14 11.7 11 19 1010.1 0 22.5 26.2 42.1 110.7 108.7 375.6
11 04:20 19.9 63 10.82 12.7 9 13 1010 0 24.0 27.5 45.3 119.1 118.8 410.6

Last Refresh: 11-Apr-2021 21:41:55

Bureau of Meteorology